Time;durP1;ratioP1;P1;durP2;ratioP2;P2;SDS_P1;SDS_P2;PMS_P1;PMS_P2;Temp;Humidity;BMP_temperature;BMP_pressure;BME280_temperature;BME280_humidity;BME280_pressure;Samples;Min_cycle;Max_cycle;Signal;HPM_P1;HPM_P2
2023/05/07 00:04:38;;;;;;;6.95;3.58;;;;;;;;;;10310335;28;20034;-47
2023/05/07 00:09:39;;;;;;;5.07;3.83;;;;;;;;;;10313232;28;20033;-48
2023/05/07 00:14:40;;;;;;;5.00;3.58;;;;;;;;;;10306462;28;20042;-51
2023/05/07 00:19:41;;;;;;;5.20;3.60;;;;;;;;;;10315363;28;20165;-50
2023/05/07 00:24:42;;;;;;;5.05;3.50;;;;;;;;;;10328422;28;20529;-50
2023/05/07 00:29:42;;;;;;;11.02;4.07;;;;;;;;;;10321846;28;20026;-48
2023/05/07 00:34:44;;;;;;;5.03;3.40;;;;;;;;;;10323205;28;20035;-52
2023/05/07 00:39:44;;;;;;;4.70;3.58;;;;;;;;;;10324685;28;20127;-55
2023/05/07 00:44:45;;;;;;;6.45;3.60;;;;;;;;;;10317096;28;20055;-62
2023/05/07 00:49:45;;;;;;;4.97;3.67;;;;;;;;;;10309176;28;20034;-51
2023/05/07 00:54:46;;;;;;;6.57;3.60;;;;;;;;;;10315801;28;20039;-60
2023/05/07 00:59:47;;;;;;;4.03;3.30;;;;;;;;;;10299462;28;20529;-54
2023/05/07 01:04:47;;;;;;;5.07;3.65;;;;;;;;;;10291582;28;20030;-55
2023/05/07 01:09:48;;;;;;;7.25;3.80;;;;;;;;;;10326438;28;20521;-61
2023/05/07 01:14:50;;;;;;;3.88;3.33;;;;;;;;;;10324535;28;20029;-59
2023/05/07 01:19:52;;;;;;;6.72;3.60;;;;;;;;;;10318629;28;20031;-55
2023/05/07 01:24:53;;;;;;;5.68;3.13;;;;;;;;;;10325751;28;20031;-48
2023/05/07 01:29:55;;;;;;;3.53;3.20;;;;;;;;;;10318812;28;20041;-54
2023/05/07 01:34:58;;;;;;;4.72;3.15;;;;;;;;;;10323152;28;20538;-48
2023/05/07 01:40:00;;;;;;;6.50;3.72;;;;;;;;;;10307137;28;20034;-53
2023/05/07 01:45:01;;;;;;;3.88;3.45;;;;;;;;;;10314558;28;20076;-55
2023/05/07 01:50:01;;;;;;;4.05;3.42;;;;;;;;;;10301081;28;20030;-49
2023/05/07 01:55:02;;;;;;;3.47;2.80;;;;;;;;;;10298242;28;20038;-51
2023/05/07 02:00:04;;;;;;;5.70;3.30;;;;;;;;;;10315594;28;20386;-48
2023/05/07 02:05:06;;;;;;;6.18;3.47;;;;;;;;;;10323990;28;20129;-48
2023/05/07 02:10:07;;;;;;;5.32;3.15;;;;;;;;;;10324714;28;20065;-48
2023/05/07 02:15:08;;;;;;;3.55;3.00;;;;;;;;;;10315491;28;20042;-47
2023/05/07 02:20:13;;;;;;;3.25;2.95;;;;;;;;;;10311130;28;20026;-49
2023/05/07 02:25:13;;;;;;;4.30;3.05;;;;;;;;;;10312469;28;20042;-50
2023/05/07 02:30:14;;;;;;;5.70;3.33;;;;;;;;;;10308188;28;20099;-48
2023/05/07 02:35:15;;;;;;;4.70;3.22;;;;;;;;;;10316869;28;20492;-47
2023/05/07 02:40:16;;;;;;;3.40;3.10;;;;;;;;;;10316358;28;20047;-47
2023/05/07 02:45:16;;;;;;;4.28;2.78;;;;;;;;;;10324005;28;20513;-47
2023/05/07 02:50:17;;;;;;;3.50;2.90;;;;;;;;;;10324191;28;20382;-54
2023/05/07 02:55:18;;;;;;;4.40;3.08;;;;;;;;;;10302000;28;20034;-47
2023/05/07 03:00:20;;;;;;;4.47;3.13;;;;;;;;;;10325442;28;20026;-46
2023/05/07 03:05:20;;;;;;;4.45;3.03;;;;;;;;;;10327502;28;20426;-50
2023/05/07 03:10:21;;;;;;;3.55;2.97;;;;;;;;;;10322366;28;20072;-48
2023/05/07 03:15:22;;;;;;;3.50;2.92;;;;;;;;;;10330931;28;20388;-48
2023/05/07 03:20:22;;;;;;;3.47;3.17;;;;;;;;;;10330142;28;20106;-50
2023/05/07 03:25:23;;;;;;;3.83;2.78;;;;;;;;;;10342409;28;20026;-48
2023/05/07 03:30:24;;;;;;;7.15;2.70;;;;;;;;;;10329759;28;20077;-49
2023/05/07 03:35:24;;;;;;;4.13;2.95;;;;;;;;;;10321947;28;20041;-49
2023/05/07 03:40:25;;;;;;;7.50;3.08;;;;;;;;;;10326606;28;20038;-48
2023/05/07 03:45:26;;;;;;;5.80;3.15;;;;;;;;;;10321293;28;20062;-59
2023/05/07 03:50:26;;;;;;;4.22;2.70;;;;;;;;;;10318694;28;20053;-47
2023/05/07 03:55:27;;;;;;;3.03;2.72;;;;;;;;;;10316155;28;20034;-48
2023/05/07 04:00:28;;;;;;;3.40;2.72;;;;;;;;;;10326988;28;20030;-50
2023/05/07 04:05:28;;;;;;;3.72;3.10;;;;;;;;;;10329759;28;20034;-49
2023/05/07 04:10:29;;;;;;;4.03;3.05;;;;;;;;;;10342350;28;20033;-51
2023/05/07 04:15:30;;;;;;;3.20;2.83;;;;;;;;;;10340455;28;20034;-56
2023/05/07 04:20:30;;;;;;;4.88;2.80;;;;;;;;;;10327547;28;20026;-57
2023/05/07 04:25:31;;;;;;;5.60;2.80;;;;;;;;;;10316210;28;20031;-55
2023/05/07 04:30:31;;;;;;;3.05;2.72;;;;;;;;;;10308961;28;20046;-57
2023/05/07 04:35:32;;;;;;;2.60;2.40;;;;;;;;;;10323915;28;20054;-49
2023/05/07 04:40:35;;;;;;;3.00;2.45;;;;;;;;;;10322246;28;20034;-56
2023/05/07 04:45:36;;;;;;;3.63;2.80;;;;;;;;;;10321888;28;20057;-47
2023/05/07 04:50:37;;;;;;;2.65;2.45;;;;;;;;;;10327370;28;20458;-55
2023/05/07 04:55:37;;;;;;;2.88;2.58;;;;;;;;;;10327508;28;20030;-51
2023/05/07 05:00:39;;;;;;;2.53;2.17;;;;;;;;;;10325937;28;20046;-52
2023/05/07 05:05:40;;;;;;;3.60;2.63;;;;;;;;;;10337963;28;20029;-54
2023/05/07 05:10:42;;;;;;;2.70;2.50;;;;;;;;;;10317982;28;20386;-55
2023/05/07 05:15:43;;;;;;;3.95;2.75;;;;;;;;;;10327346;28;20037;-57
2023/05/07 05:20:43;;;;;;;2.75;2.55;;;;;;;;;;10303623;28;20038;-57
2023/05/07 05:25:44;;;;;;;2.55;2.35;;;;;;;;;;10318693;28;20030;-55
2023/05/07 05:30:45;;;;;;;2.78;2.58;;;;;;;;;;10327822;28;20058;-56
2023/05/07 05:35:45;;;;;;;3.15;2.40;;;;;;;;;;10319530;28;20450;-53
2023/05/07 05:40:46;;;;;;;2.95;2.65;;;;;;;;;;10311881;28;20475;-55
2023/05/07 05:45:47;;;;;;;4.07;2.30;;;;;;;;;;10325047;28;20531;-56
2023/05/07 05:50:47;;;;;;;3.33;2.63;;;;;;;;;;10324065;28;20654;-49
2023/05/07 05:55:48;;;;;;;3.00;2.78;;;;;;;;;;10319262;28;20374;-51
2023/05/07 06:00:52;;;;;;;2.75;2.42;;;;;;;;;;10308539;28;20030;-47
2023/05/07 06:05:52;;;;;;;2.90;2.60;;;;;;;;;;10318625;28;20026;-48
2023/05/07 06:10:53;;;;;;;3.13;2.58;;;;;;;;;;10325431;28;20041;-47
2023/05/07 06:15:53;;;;;;;2.60;2.33;;;;;;;;;;10323158;28;20050;-52
2023/05/07 06:20:54;;;;;;;2.15;2.03;;;;;;;;;;10318115;28;20034;-48
2023/05/07 06:25:54;;;;;;;3.55;2.40;;;;;;;;;;10324722;28;20030;-52
2023/05/07 06:30:55;;;;;;;2.63;2.33;;;;;;;;;;10313411;28;20042;-60
2023/05/07 06:35:56;;;;;;;2.60;2.40;;;;;;;;;;10318625;28;20066;-57
2023/05/07 06:40:57;;;;;;;2.28;2.10;;;;;;;;;;10315565;28;20097;-59
2023/05/07 06:45:57;;;;;;;2.70;2.50;;;;;;;;;;10319002;28;20398;-59
2023/05/07 06:50:58;;;;;;;5.80;3.63;;;;;;;;;;10310845;28;20053;-49
2023/05/07 06:55:58;;;;;;;3.70;3.40;;;;;;;;;;10309002;28;21053;-52
2023/05/07 07:00:59;;;;;;;3.67;3.33;;;;;;;;;;10316440;28;20042;-57
2023/05/07 07:06:01;;;;;;;3.90;3.50;;;;;;;;;;10313262;28;20089;-52
2023/05/07 07:11:02;;;;;;;10.27;3.97;;;;;;;;;;10313915;28;20034;-52
2023/05/07 07:16:03;;;;;;;7.30;4.55;;;;;;;;;;10312690;28;20026;-53
2023/05/07 07:21:03;;;;;;;7.30;4.20;;;;;;;;;;10306574;28;20556;-53
2023/05/07 07:26:05;;;;;;;20.80;5.00;;;;;;;;;;10326460;28;20124;-57
2023/05/07 07:31:06;;;;;;;5.43;4.72;;;;;;;;;;10319732;28;20081;-56
2023/05/07 07:36:07;;;;;;;5.65;4.95;;;;;;;;;;10317787;28;20034;-56
2023/05/07 07:41:09;;;;;;;7.25;4.75;;;;;;;;;;10329622;28;20036;-58
2023/05/07 07:46:09;;;;;;;5.63;5.10;;;;;;;;;;10328597;28;20521;-57
2023/05/07 07:51:10;;;;;;;9.48;4.00;;;;;;;;;;10325589;28;20042;-58
2023/05/07 07:56:11;;;;;;;10.75;4.20;;;;;;;;;;10326091;28;20034;-53
2023/05/07 08:01:12;;;;;;;5.32;3.65;;;;;;;;;;10319327;28;20546;-56
2023/05/07 08:06:13;;;;;;;6.70;3.38;;;;;;;;;;10329131;28;20081;-54
2023/05/07 08:11:14;;;;;;;5.07;3.75;;;;;;;;;;10325211;28;20034;-56
2023/05/07 08:16:15;;;;;;;6.50;3.60;;;;;;;;;;10324505;28;20038;-55
2023/05/07 08:21:15;;;;;;;4.10;3.60;;;;;;;;;;10329318;28;20485;-55
2023/05/07 08:26:16;;;;;;;5.03;3.90;;;;;;;;;;10325690;28;20045;-55
2023/05/07 08:31:16;;;;;;;4.82;4.03;;;;;;;;;;10292550;28;20035;-58
2023/05/07 08:36:19;;;;;;;6.53;4.15;;;;;;;;;;10327783;28;20404;-58
2023/05/07 08:41:20;;;;;;;4.13;3.70;;;;;;;;;;10317423;28;20045;-59
2023/05/07 08:46:22;;;;;;;5.20;3.88;;;;;;;;;;10327429;28;20347;-59
2023/05/07 08:51:22;;;;;;;4.60;3.95;;;;;;;;;;10323726;28;20061;-59
2023/05/07 08:56:23;;;;;;;4.00;3.45;;;;;;;;;;10321264;28;20034;-57
2023/05/07 09:01:24;;;;;;;6.38;3.65;;;;;;;;;;10334274;28;20037;-58
2023/05/07 09:06:26;;;;;;;9.05;4.15;;;;;;;;;;10326404;28;20486;-63
2023/05/07 09:11:27;;;;;;;6.45;3.72;;;;;;;;;;10319702;28;20034;-63
2023/05/07 09:16:30;;;;;;;6.30;3.75;;;;;;;;;;10325493;28;20030;-63
2023/05/07 09:21:31;;;;;;;6.35;3.20;;;;;;;;;;10313640;28;20027;-64
2023/05/07 09:26:33;;;;;;;5.70;3.72;;;;;;;;;;10336872;28;20032;-63
2023/05/07 09:31:37;;;;;;;3.72;3.30;;;;;;;;;;10335575;28;20114;-64
2023/05/07 09:36:38;;;;;;;5.75;3.50;;;;;;;;;;10320433;28;20469;-64
2023/05/07 09:41:49;;;;;;;4.07;3.17;;;;;;;;;;10314841;28;20041;-62
2023/05/07 09:46:55;;;;;;;5.70;4.05;;;;;;;;;;10295264;28;20049;-59
2023/05/07 09:51:56;;;;;;;4.88;3.80;;;;;;;;;;10323531;28;20037;-62
2023/05/07 09:56:58;;;;;;;4.75;4.30;;;;;;;;;;10323842;28;20089;-53
2023/05/07 10:02:00;;;;;;;4.40;4.00;;;;;;;;;;10309782;28;20036;-49
2023/05/07 10:07:02;;;;;;;5.75;4.00;;;;;;;;;;10346699;28;20033;-50
2023/05/07 10:12:04;;;;;;;8.77;3.92;;;;;;;;;;10311476;28;20026;-51
2023/05/07 10:17:06;;;;;;;7.32;3.80;;;;;;;;;;10281688;28;20382;-51
2023/05/07 10:22:08;;;;;;;10.35;4.35;;;;;;;;;;10309961;28;20062;-50
2023/05/07 10:27:14;;;;;;;7.20;4.47;;;;;;;;;;10310636;28;20026;-48
2023/05/07 10:32:38;;;;;;;5.78;4.70;;;;;;;;;;10302482;28;20100;-52
2023/05/07 10:37:39;;;;;;;5.25;4.22;;;;;;;;;;10321189;28;20045;-61
2023/05/07 10:42:57;;;;;;;11.80;4.50;;;;;;;;;;10305973;28;20060;-48
2023/05/07 10:48:16;;;;;;;8.98;4.65;;;;;;;;;;10315913;28;20037;-50
2023/05/07 10:53:16;;;;;;;;;;;;;;;;;;10320120;28;20560;-48
2023/05/07 10:58:26;;;;;;;6.83;5.00;;;;;;;;;;10356845;28;20080;-54
2023/05/07 11:03:28;;;;;;;6.68;5.10;;;;;;;;;;10328184;28;20561;-53
2023/05/07 11:08:56;;;;;;;12.75;5.63;;;;;;;;;;10336013;28;20108;-64
2023/05/07 11:13:56;;;;;;;9.02;5.35;;;;;;;;;;10317312;28;20109;-60
2023/05/07 11:18:57;;;;;;;6.20;5.57;;;;;;;;;;10321023;28;20031;-60
2023/05/07 11:23:58;;;;;;;6.10;5.47;;;;;;;;;;10329072;28;20096;-63
2023/05/07 11:29:00;;;;;;;7.38;5.65;;;;;;;;;;10319030;28;20041;-59
2023/05/07 11:34:01;;;;;;;8.60;5.40;;;;;;;;;;10326444;28;20034;-65
2023/05/07 11:39:01;;;;;;;8.45;5.30;;;;;;;;;;10319114;28;20473;-61
2023/05/07 11:44:02;;;;;;;5.53;4.90;;;;;;;;;;10315982;28;20413;-64
2023/05/07 11:49:03;;;;;;;4.65;4.10;;;;;;;;;;10320758;28;20490;-59
2023/05/07 11:54:08;;;;;;;8.93;5.10;;;;;;;;;;10312471;28;20470;-64
2023/05/07 11:59:09;;;;;;;8.43;4.65;;;;;;;;;;10329551;28;20054;-48
2023/05/07 12:04:09;;;;;;;6.15;4.70;;;;;;;;;;10328344;28;20038;-64
2023/05/07 12:09:11;;;;;;;4.90;4.50;;;;;;;;;;10337659;28;20049;-64
2023/05/07 12:14:12;;;;;;;6.18;4.40;;;;;;;;;;10324039;28;20085;-54
2023/05/07 12:19:14;;;;;;;5.90;5.05;;;;;;;;;;10330418;28;20073;-59
2023/05/07 12:24:15;;;;;;;10.77;4.97;;;;;;;;;;10324311;28;20037;-65
2023/05/07 12:29:15;;;;;;;9.48;5.57;;;;;;;;;;10328304;28;20034;-55
2023/05/07 12:34:16;;;;;;;11.70;4.90;;;;;;;;;;10324888;28;20390;-64
2023/05/07 12:39:17;;;;;;;10.02;4.93;;;;;;;;;;10321851;28;20379;-62
2023/05/07 12:44:17;;;;;;;7.30;5.63;;;;;;;;;;10322309;28;20042;-52
2023/05/07 12:49:18;;;;;;;7.10;5.50;;;;;;;;;;10322108;28;20030;-61
2023/05/07 12:54:37;;;;;;;9.70;5.38;;;;;;;;;;10325744;28;20365;-64
2023/05/07 12:59:40;;;;;;;7.85;5.97;;;;;;;;;;10314064;28;20030;-59
2023/05/07 13:04:41;;;;;;;8.05;6.78;;;;;;;;;;10323876;28;20054;-57
2023/05/07 13:09:42;;;;;;;7.30;6.43;;;;;;;;;;10313439;28;20509;-61
2023/05/07 13:14:42;;;;;;;9.95;6.38;;;;;;;;;;10315074;28;20489;-64
2023/05/07 13:20:03;;;;;;;11.93;6.43;;;;;;;;;;10316804;28;20033;-63
2023/05/07 13:25:05;;;;;;;12.18;7.85;;;;;;;;;;10112711;29;20048;-59
2023/05/07 13:30:07;;;;;;;12.48;6.32;;;;;;;;;;10123013;29;20404;-61
2023/05/07 13:35:07;;;;;;;8.32;6.50;;;;;;;;;;10124725;29;20044;-59
2023/05/07 13:40:09;;;;;;;11.95;8.18;;;;;;;;;;10122594;29;20057;-59
2023/05/07 13:45:10;;;;;;;11.18;7.40;;;;;;;;;;10109593;29;20109;-58
2023/05/07 13:50:13;;;;;;;8.85;6.82;;;;;;;;;;10121590;29;20381;-57
2023/05/07 13:55:14;;;;;;;8.73;7.22;;;;;;;;;;10114822;29;20040;-60
2023/05/07 14:00:16;;;;;;;11.30;7.15;;;;;;;;;;10194433;28;20051;-60
2023/05/07 14:05:16;;;;;;;11.48;7.88;;;;;;;;;;10325087;28;20461;-61
2023/05/07 14:10:18;;;;;;;10.57;7.72;;;;;;;;;;10310442;28;20050;-55
2023/05/07 14:15:19;;;;;;;9.85;8.68;;;;;;;;;;10302291;28;20062;-59
2023/05/07 14:20:20;;;;;;;11.65;8.50;;;;;;;;;;10318019;28;20566;-60
2023/05/07 14:25:21;;;;;;;10.88;7.30;;;;;;;;;;10304722;28;20043;-59
2023/05/07 14:30:24;;;;;;;8.43;7.10;;;;;;;;;;10293604;28;20023;-60
2023/05/07 14:35:24;;;;;;;11.35;7.30;;;;;;;;;;10314289;28;20549;-60
2023/05/07 14:40:25;;;;;;;8.95;8.07;;;;;;;;;;10308573;28;20026;-60
2023/05/07 14:45:26;;;;;;;16.42;8.18;;;;;;;;;;10307234;28;20050;-59
2023/05/07 14:50:26;;;;;;;10.10;8.55;;;;;;;;;;10313012;28;20062;-61
2023/05/07 14:55:27;;;;;;;12.57;8.73;;;;;;;;;;10302916;28;20126;-55
2023/05/07 15:00:28;;;;;;;11.15;8.73;;;;;;;;;;10315692;28;20046;-61
2023/05/07 15:05:29;;;;;;;9.88;8.23;;;;;;;;;;10298289;28;20034;-53
2023/05/07 15:10:29;;;;;;;11.88;7.97;;;;;;;;;;10312246;28;20035;-61
2023/05/07 15:15:30;;;;;;;13.57;8.63;;;;;;;;;;10297003;28;20026;-61
2023/05/07 15:20:40;;;;;;;11.05;8.48;;;;;;;;;;10318189;28;20401;-60
2023/05/07 15:25:41;;;;;;;11.38;7.97;;;;;;;;;;10312198;28;20054;-57
2023/05/07 15:30:42;;;;;;;9.63;8.73;;;;;;;;;;10307198;28;20030;-58
2023/05/07 15:35:42;;;;;;;10.68;8.85;;;;;;;;;;10310036;28;20406;-59
2023/05/07 15:40:43;;;;;;;13.32;8.77;;;;;;;;;;10296033;28;20039;-61
2023/05/07 15:45:44;;;;;;;9.20;8.30;;;;;;;;;;10313771;28;20042;-56
2023/05/07 15:50:45;;;;;;;11.27;8.38;;;;;;;;;;10305930;28;20505;-56
2023/05/07 15:55:46;;;;;;;11.45;7.65;;;;;;;;;;10319624;28;20049;-57
2023/05/07 16:00:47;;;;;;;10.90;8.35;;;;;;;;;;10308130;28;20034;-61
2023/05/07 16:05:48;;;;;;;12.50;8.98;;;;;;;;;;10314105;28;20406;-57
2023/05/07 16:10:48;;;;;;;10.60;8.60;;;;;;;;;;10324764;28;20023;-61
2023/05/07 16:15:49;;;;;;;10.63;8.65;;;;;;;;;;10306542;28;20026;-56
2023/05/07 16:20:50;;;;;;;12.77;9.13;;;;;;;;;;10314492;28;20026;-56
2023/05/07 16:25:50;;;;;;;10.43;7.40;;;;;;;;;;10329745;28;20029;-58
2023/05/07 16:30:51;;;;;;;9.43;6.22;;;;;;;;;;10319139;28;20031;-59
2023/05/07 16:35:52;;;;;;;5.70;5.00;;;;;;;;;;10328666;28;20027;-59
2023/05/07 16:40:53;;;;;;;6.15;4.30;;;;;;;;;;10322204;28;20493;-61
2023/05/07 16:45:54;;;;;;;7.05;4.30;;;;;;;;;;10321840;28;20129;-56
2023/05/07 16:50:54;;;;;;;4.47;4.07;;;;;;;;;;10321238;28;20489;-58
2023/05/07 16:55:55;;;;;;;7.43;4.38;;;;;;;;;;10326496;28;20049;-61
2023/05/07 17:00:55;;;;;;;4.53;3.67;;;;;;;;;;10311362;28;20081;-59
2023/05/07 17:05:56;;;;;;;5.70;3.92;;;;;;;;;;10315054;28;20089;-60
2023/05/07 17:10:57;;;;;;;5.20;3.88;;;;;;;;;;10316039;28;20031;-57
2023/05/07 17:15:57;;;;;;;5.60;3.83;;;;;;;;;;10300569;28;20038;-58
2023/05/07 17:20:58;;;;;;;5.78;3.80;;;;;;;;;;10307966;28;20489;-57
2023/05/07 17:25:59;;;;;;;4.57;4.03;;;;;;;;;;10330757;28;20038;-50
2023/05/07 17:31:01;;;;;;;6.78;3.40;;;;;;;;;;10325747;28;20041;-55
2023/05/07 17:36:02;;;;;;;4.97;4.07;;;;;;;;;;10313803;28;20038;-53
2023/05/07 17:41:02;;;;;;;12.82;5.57;;;;;;;;;;10309815;28;20034;-56
2023/05/07 17:46:03;;;;;;;14.93;5.80;;;;;;;;;;10315916;28;20057;-55
2023/05/07 17:51:04;;;;;;;17.35;4.93;;;;;;;;;;10319739;28;20077;-53
2023/05/07 17:56:04;;;;;;;5.28;4.57;;;;;;;;;;10315892;28;20037;-51
2023/05/07 18:01:05;;;;;;;7.95;5.30;;;;;;;;;;10308492;28;20043;-54
2023/05/07 18:06:06;;;;;;;6.88;4.88;;;;;;;;;;10310209;28;20096;-51
2023/05/07 18:11:06;;;;;;;16.75;5.53;;;;;;;;;;10315898;28;20030;-61
2023/05/07 18:16:08;;;;;;;37.08;6.53;;;;;;;;;;10301515;28;20022;-53
2023/05/07 18:21:14;;;;;;;18.05;6.35;;;;;;;;;;10294118;28;20038;-54
2023/05/07 18:26:14;;;;;;;9.73;4.75;;;;;;;;;;10295174;28;20132;-54
2023/05/07 18:31:15;;;;;;;7.88;5.05;;;;;;;;;;10294820;28;20208;-56
2023/05/07 18:36:16;;;;;;;7.40;4.43;;;;;;;;;;10297937;28;20034;-51
2023/05/07 18:41:16;;;;;;;11.48;5.50;;;;;;;;;;10311237;28;20031;-54
2023/05/07 18:46:17;;;;;;;7.10;4.57;;;;;;;;;;10303994;28;20039;-52
2023/05/07 18:51:17;;;;;;;8.90;4.07;;;;;;;;;;10288877;28;20035;-50
2023/05/07 18:56:18;;;;;;;5.22;4.13;;;;;;;;;;10306552;28;20506;-54
2023/05/07 19:01:18;;;;;;;6.85;4.20;;;;;;;;;;10306303;28;20659;-53
2023/05/07 19:06:20;;;;;;;10.95;5.20;;;;;;;;;;10313763;28;20462;-58
2023/05/07 19:11:22;;;;;;;11.10;5.10;;;;;;;;;;10317882;28;20040;-49
2023/05/07 19:16:23;;;;;;;7.95;5.30;;;;;;;;;;10314190;28;20126;-60
2023/05/07 19:21:24;;;;;;;10.68;5.10;;;;;;;;;;10300996;28;20081;-58
2023/05/07 19:26:24;;;;;;;8.05;5.45;;;;;;;;;;10315246;28;20542;-57
2023/05/07 19:31:26;;;;;;;7.80;5.15;;;;;;;;;;10316401;28;20038;-50
2023/05/07 19:36:27;;;;;;;8.07;6.72;;;;;;;;;;10310761;28;20093;-60
2023/05/07 19:41:28;;;;;;;8.55;7.75;;;;;;;;;;10302086;28;20030;-63
2023/05/07 19:46:29;;;;;;;12.25;6.97;;;;;;;;;;10295305;28;20122;-58
2023/05/07 19:51:31;;;;;;;7.50;6.18;;;;;;;;;;10322001;28;20393;-55
2023/05/07 19:56:32;;;;;;;9.95;5.75;;;;;;;;;;10328957;28;20157;-49
2023/05/07 20:01:33;;;;;;;8.32;6.20;;;;;;;;;;10323961;28;20620;-54
2023/05/07 20:06:33;;;;;;;8.27;6.50;;;;;;;;;;10311969;28;20109;-58
2023/05/07 20:11:34;;;;;;;12.68;6.07;;;;;;;;;;10315166;28;20113;-57
2023/05/07 20:16:35;;;;;;;11.63;6.72;;;;;;;;;;10316997;28;20026;-59
2023/05/07 20:21:35;;;;;;;12.50;6.95;;;;;;;;;;10328236;28;20039;-58
2023/05/07 20:26:37;;;;;;;10.95;6.88;;;;;;;;;;10330760;28;20030;-58
2023/05/07 20:31:38;;;;;;;18.48;7.35;;;;;;;;;;10329231;28;20057;-60
2023/05/07 20:36:39;;;;;;;15.02;7.47;;;;;;;;;;10340540;28;20390;-59
2023/05/07 20:41:40;;;;;;;15.75;6.38;;;;;;;;;;10320797;28;20038;-62
2023/05/07 20:46:40;;;;;;;14.88;6.90;;;;;;;;;;10328747;28;20093;-62
2023/05/07 20:51:41;;;;;;;17.00;7.72;;;;;;;;;;10319307;28;20035;-47
2023/05/07 20:56:41;;;;;;;14.77;8.20;;;;;;;;;;10329225;28;20037;-47
2023/05/07 21:01:42;;;;;;;10.90;7.38;;;;;;;;;;10316690;28;20022;-47
2023/05/07 21:06:43;;;;;;;11.77;7.38;;;;;;;;;;10316082;28;20119;-49
2023/05/07 21:11:44;;;;;;;16.25;7.13;;;;;;;;;;10328435;28;20097;-54
2023/05/07 21:16:45;;;;;;;10.65;6.80;;;;;;;;;;10302047;28;20064;-56
2023/05/07 21:21:45;;;;;;;14.93;6.88;;;;;;;;;;10299079;28;20105;-51
2023/05/07 21:26:46;;;;;;;10.80;6.50;;;;;;;;;;10308459;28;20026;-54
2023/05/07 21:31:47;;;;;;;10.65;6.18;;;;;;;;;;10302042;28;20377;-54
2023/05/07 21:36:48;;;;;;;10.52;5.85;;;;;;;;;;10299965;28;20482;-52
2023/05/07 21:41:49;;;;;;;12.43;6.10;;;;;;;;;;10292031;28;20096;-48
2023/05/07 21:46:49;;;;;;;9.98;5.80;;;;;;;;;;10303692;28;20042;-54
2023/05/07 21:51:50;;;;;;;7.70;5.18;;;;;;;;;;10291136;28;20027;-56
2023/05/07 21:56:51;;;;;;;8.30;4.88;;;;;;;;;;10290681;28;20498;-50
2023/05/07 22:01:51;;;;;;;9.00;5.00;;;;;;;;;;10290727;28;20411;-51
2023/05/07 22:06:52;;;;;;;7.30;5.60;;;;;;;;;;10289462;28;20027;-53
2023/05/07 22:11:53;;;;;;;8.52;5.60;;;;;;;;;;10289807;28;20032;-54
2023/05/07 22:16:54;;;;;;;6.95;4.90;;;;;;;;;;10291385;28;20022;-56
2023/05/07 22:21:55;;;;;;;7.68;4.72;;;;;;;;;;10314575;28;20046;-50
2023/05/07 22:26:56;;;;;;;6.00;4.50;;;;;;;;;;10288524;28;20038;-51
2023/05/07 22:31:56;;;;;;;7.57;4.65;;;;;;;;;;10289340;28;20023;-50
2023/05/07 22:36:57;;;;;;;7.80;5.00;;;;;;;;;;10289539;28;20474;-48
2023/05/07 22:41:58;;;;;;;7.15;5.18;;;;;;;;;;10301491;28;20068;-50
2023/05/07 22:46:58;;;;;;;7.93;5.53;;;;;;;;;;10300978;28;20073;-47
2023/05/07 22:51:59;;;;;;;6.35;5.10;;;;;;;;;;10288974;28;20097;-49
2023/05/07 22:57:00;;;;;;;7.28;4.45;;;;;;;;;;10289089;28;20086;-49
2023/05/07 23:02:01;;;;;;;8.65;4.65;;;;;;;;;;10296258;28;20035;-50
2023/05/07 23:07:02;;;;;;;5.43;4.50;;;;;;;;;;10306220;28;20060;-51
2023/05/07 23:12:03;;;;;;;7.95;4.65;;;;;;;;;;10300938;28;20026;-50
2023/05/07 23:17:04;;;;;;;6.47;4.47;;;;;;;;;;10296917;28;20022;-49
2023/05/07 23:22:05;;;;;;;6.90;4.32;;;;;;;;;;10315939;28;20474;-49
2023/05/07 23:27:06;;;;;;;8.48;4.10;;;;;;;;;;10301472;28;20023;-61
2023/05/07 23:32:07;;;;;;;5.15;4.40;;;;;;;;;;10296311;28;20541;-52
2023/05/07 23:37:09;;;;;;;10.50;4.60;;;;;;;;;;10308956;28;20027;-51
2023/05/07 23:42:09;;;;;;;4.88;4.00;;;;;;;;;;10300067;28;20097;-52
2023/05/07 23:47:10;;;;;;;5.20;3.97;;;;;;;;;;10308023;28;20379;-53
2023/05/07 23:52:10;;;;;;;6.35;4.45;;;;;;;;;;10295307;28;20582;-52
2023/05/07 23:57:11;;;;;;;5.50;4.10;;;;;;;;;;10295040;28;20525;-54
